sensor_id;sensor_type;location;lat;lon;timestamp;P1;P2;P0
63662;PMS5003;49815;51.618;0.336;2022-09-09T00:01:16;3;3;
63662;PMS5003;49815;51.618;0.336;2022-09-09T00:03:39;6;5;
63662;PMS5003;49815;51.618;0.336;2022-09-09T00:06:03;6;5;
63662;PMS5003;49815;51.618;0.336;2022-09-09T00:08:31;4;3;
63662;PMS5003;49815;51.618;0.336;2022-09-09T00:10:54;5;2;
63662;PMS5003;49815;51.618;0.336;2022-09-09T00:13:20;7;6;
63662;PMS5003;49815;51.618;0.336;2022-09-09T00:15:46;8;5;
63662;PMS5003;49815;51.618;0.336;2022-09-09T00:18:13;6;5;
63662;PMS5003;49815;51.618;0.336;2022-09-09T00:20:35;7;5;
63662;PMS5003;49815;51.618;0.336;2022-09-09T00:23:03;5;5;
63662;PMS5003;49815;51.618;0.336;2022-09-09T00:25:28;4;3;
63662;PMS5003;49815;51.618;0.336;2022-09-09T00:27:52;6;4;
63662;PMS5003;49815;51.618;0.336;2022-09-09T00:30:18;7;4;
63662;PMS5003;49815;51.618;0.336;2022-09-09T00:32:43;7;4;
63662;PMS5003;49815;51.618;0.336;2022-09-09T00:35:13;4;4;
63662;PMS5003;49815;51.618;0.336;2022-09-09T00:37:33;4;3;
63662;PMS5003;49815;51.618;0.336;2022-09-09T00:39:59;4;4;
63662;PMS5003;49815;51.618;0.336;2022-09-09T00:42:25;6;4;
63662;PMS5003;49815;51.618;0.336;2022-09-09T00:44:51;5;5;
63662;PMS5003;49815;51.618;0.336;2022-09-09T00:47:19;4;4;
63662;PMS5003;49815;51.618;0.336;2022-09-09T00:49:43;5;5;
63662;PMS5003;49815;51.618;0.336;2022-09-09T00:52:09;5;4;
63662;PMS5003;49815;51.618;0.336;2022-09-09T00:54:33;9;6;
63662;PMS5003;49815;51.618;0.336;2022-09-09T00:56:59;7;7;
63662;PMS5003;49815;51.618;0.336;2022-09-09T00:59:24;10;6;
63662;PMS5003;49815;51.618;0.336;2022-09-09T01:01:47;5;5;
63662;PMS5003;49815;51.618;0.336;2022-09-09T01:04:13;5;5;
63662;PMS5003;49815;51.618;0.336;2022-09-09T01:06:37;5;4;
63662;PMS5003;49815;51.618;0.336;2022-09-09T01:09:05;7;7;
63662;PMS5003;49815;51.618;0.336;2022-09-09T01:11:33;6;4;
63662;PMS5003;49815;51.618;0.336;2022-09-09T01:13:55;6;5;
63662;PMS5003;49815;51.618;0.336;2022-09-09T01:16:18;5;5;
63662;PMS5003;49815;51.618;0.336;2022-09-09T01:18:44;5;4;
63662;PMS5003;49815;51.618;0.336;2022-09-09T01:21:13;8;5;
63662;PMS5003;49815;51.618;0.336;2022-09-09T01:23:38;8;6;
63662;PMS5003;49815;51.618;0.336;2022-09-09T01:26:09;10;7;
63662;PMS5003;49815;51.618;0.336;2022-09-09T01:28:25;12;7;
63662;PMS5003;49815;51.618;0.336;2022-09-09T01:30:51;8;7;
63662;PMS5003;49815;51.618;0.336;2022-09-09T01:33:17;10;9;
63662;PMS5003;49815;51.618;0.336;2022-09-09T01:35:43;6;6;
63662;PMS5003;49815;51.618;0.336;2022-09-09T01:38:07;11;8;
63662;PMS5003;49815;51.618;0.336;2022-09-09T01:40:32;7;6;
63662;PMS5003;49815;51.618;0.336;2022-09-09T01:42:57;7;7;
63662;PMS5003;49815;51.618;0.336;2022-09-09T01:45:23;8;8;
63662;PMS5003;49815;51.618;0.336;2022-09-09T01:47:48;6;6;
63662;PMS5003;49815;51.618;0.336;2022-09-09T01:50:14;9;7;
63662;PMS5003;49815;51.618;0.336;2022-09-09T01:52:38;10;8;
63662;PMS5003;49815;51.618;0.336;2022-09-09T01:55:04;10;8;
63662;PMS5003;49815;51.618;0.336;2022-09-09T01:57:30;12;12;
63662;PMS5003;49815;51.618;0.336;2022-09-09T01:59:59;11;6;
63662;PMS5003;49815;51.618;0.336;2022-09-09T02:02:22;11;9;
63662;PMS5003;49815;51.618;0.336;2022-09-09T02:04:50;13;9;
63662;PMS5003;49815;51.618;0.336;2022-09-09T02:07:15;12;7;
63662;PMS5003;49815;51.618;0.336;2022-09-09T02:09:37;8;7;
63662;PMS5003;49815;51.618;0.336;2022-09-09T02:12:03;9;8;
63662;PMS5003;49815;51.618;0.336;2022-09-09T02:14:27;8;8;
63662;PMS5003;49815;51.618;0.336;2022-09-09T02:16:53;9;9;
63662;PMS5003;49815;51.618;0.336;2022-09-09T02:19:18;6;6;
63662;PMS5003;49815;51.618;0.336;2022-09-09T02:21:43;7;7;
63662;PMS5003;49815;51.618;0.336;2022-09-09T02:24:08;10;7;
63662;PMS5003;49815;51.618;0.336;2022-09-09T02:26:33;10;7;
63662;PMS5003;49815;51.618;0.336;2022-09-09T02:28:59;8;8;
63662;PMS5003;49815;51.618;0.336;2022-09-09T02:31:24;14;9;
63662;PMS5003;49815;51.618;0.336;2022-09-09T02:33:51;9;9;
63662;PMS5003;49815;51.618;0.336;2022-09-09T02:36:15;9;9;
63662;PMS5003;49815;51.618;0.336;2022-09-09T02:38:41;12;8;
63662;PMS5003;49815;51.618;0.336;2022-09-09T02:41:05;15;10;
63662;PMS5003;49815;51.618;0.336;2022-09-09T02:43:31;6;6;
63662;PMS5003;49815;51.618;0.336;2022-09-09T02:45:57;9;7;
63662;PMS5003;49815;51.618;0.336;2022-09-09T02:48:24;11;5;
63662;PMS5003;49815;51.618;0.336;2022-09-09T02:50:49;8;8;
63662;PMS5003;49815;51.618;0.336;2022-09-09T02:53:14;11;10;
63662;PMS5003;49815;51.618;0.336;2022-09-09T02:55:39;13;12;
63662;PMS5003;49815;51.618;0.336;2022-09-09T02:58:04;17;15;
63662;PMS5003;49815;51.618;0.336;2022-09-09T03:00:30;10;9;
63662;PMS5003;49815;51.618;0.336;2022-09-09T03:02:55;11;10;
63662;PMS5003;49815;51.618;0.336;2022-09-09T03:05:21;11;8;
63662;PMS5003;49815;51.618;0.336;2022-09-09T03:07:46;18;11;
63662;PMS5003;49815;51.618;0.336;2022-09-09T03:10:16;12;12;
63662;PMS5003;49815;51.618;0.336;2022-09-09T03:12:36;10;9;
63662;PMS5003;49815;51.618;0.336;2022-09-09T03:15:02;9;9;
63662;PMS5003;49815;51.618;0.336;2022-09-09T03:17:27;11;11;
63662;PMS5003;49815;51.618;0.336;2022-09-09T03:19:52;8;8;
63662;PMS5003;49815;51.618;0.336;2022-09-09T03:22:18;11;11;
63662;PMS5003;49815;51.618;0.336;2022-09-09T03:24:43;12;9;
63662;PMS5003;49815;51.618;0.336;2022-09-09T03:27:08;13;11;
63662;PMS5003;49815;51.618;0.336;2022-09-09T03:29:33;13;10;
63662;PMS5003;49815;51.618;0.336;2022-09-09T03:31:59;8;8;
63662;PMS5003;49815;51.618;0.336;2022-09-09T03:34:24;14;11;
63662;PMS5003;49815;51.618;0.336;2022-09-09T03:36:50;13;10;
63662;PMS5003;49815;51.618;0.336;2022-09-09T03:39:16;14;13;
63662;PMS5003;49815;51.618;0.336;2022-09-09T03:41:41;15;13;
63662;PMS5003;49815;51.618;0.336;2022-09-09T03:44:06;13;10;
63662;PMS5003;49815;51.618;0.336;2022-09-09T03:46:32;12;11;
63662;PMS5003;49815;51.618;0.336;2022-09-09T03:48:57;10;10;
63662;PMS5003;49815;51.618;0.336;2022-09-09T03:51:22;16;14;
63662;PMS5003;49815;51.618;0.336;2022-09-09T03:53:48;19;18;
63662;PMS5003;49815;51.618;0.336;2022-09-09T03:56:13;13;13;
63662;PMS5003;49815;51.618;0.336;2022-09-09T03:58:38;15;15;
63662;PMS5003;49815;51.618;0.336;2022-09-09T04:01:05;20;17;
63662;PMS5003;49815;51.618;0.336;2022-09-09T04:03:30;21;19;
63662;PMS5003;49815;51.618;0.336;2022-09-09T04:05:55;16;13;
63662;PMS5003;49815;51.618;0.336;2022-09-09T04:08:20;20;17;
63662;PMS5003;49815;51.618;0.336;2022-09-09T04:10:46;21;19;
63662;PMS5003;49815;51.618;0.336;2022-09-09T04:13:11;20;18;
63662;PMS5003;49815;51.618;0.336;2022-09-09T04:15:37;24;22;
63662;PMS5003;49815;51.618;0.336;2022-09-09T04:18:02;21;18;
63662;PMS5003;49815;51.618;0.336;2022-09-09T04:20:28;25;22;
63662;PMS5003;49815;51.618;0.336;2022-09-09T04:22:54;21;20;
63662;PMS5003;49815;51.618;0.336;2022-09-09T04:25:19;19;19;
63662;PMS5003;49815;51.618;0.336;2022-09-09T04:27:44;25;23;
63662;PMS5003;49815;51.618;0.336;2022-09-09T04:30:09;16;15;
63662;PMS5003;49815;51.618;0.336;2022-09-09T04:32:35;20;19;
63662;PMS5003;49815;51.618;0.336;2022-09-09T04:35:00;11;11;
63662;PMS5003;49815;51.618;0.336;2022-09-09T04:37:25;14;14;
63662;PMS5003;49815;51.618;0.336;2022-09-09T04:39:51;17;13;
63662;PMS5003;49815;51.618;0.336;2022-09-09T04:42:21;13;12;
63662;PMS5003;49815;51.618;0.336;2022-09-09T04:44:42;15;12;
63662;PMS5003;49815;51.618;0.336;2022-09-09T04:47:08;19;16;
63662;PMS5003;49815;51.618;0.336;2022-09-09T04:49:33;14;11;
63662;PMS5003;49815;51.618;0.336;2022-09-09T04:51:59;24;19;
63662;PMS5003;49815;51.618;0.336;2022-09-09T04:54:25;14;13;
63662;PMS5003;49815;51.618;0.336;2022-09-09T04:56:50;17;14;
63662;PMS5003;49815;51.618;0.336;2022-09-09T04:59:15;9;9;
63662;PMS5003;49815;51.618;0.336;2022-09-09T05:01:40;10;9;
63662;PMS5003;49815;51.618;0.336;2022-09-09T05:04:05;7;6;
63662;PMS5003;49815;51.618;0.336;2022-09-09T05:11:22;9;7;
63662;PMS5003;49815;51.618;0.336;2022-09-09T05:13:47;7;7;
63662;PMS5003;49815;51.618;0.336;2022-09-09T05:16:12;10;9;
63662;PMS5003;49815;51.618;0.336;2022-09-09T05:18:37;7;7;
63662;PMS5003;49815;51.618;0.336;2022-09-09T05:21:03;11;11;
63662;PMS5003;49815;51.618;0.336;2022-09-09T05:23:28;10;9;
63662;PMS5003;49815;51.618;0.336;2022-09-09T05:25:54;11;10;
63662;PMS5003;49815;51.618;0.336;2022-09-09T05:28:19;12;11;
63662;PMS5003;49815;51.618;0.336;2022-09-09T05:30:44;12;10;
63662;PMS5003;49815;51.618;0.336;2022-09-09T05:33:09;12;10;
63662;PMS5003;49815;51.618;0.336;2022-09-09T05:35:34;13;13;
63662;PMS5003;49815;51.618;0.336;2022-09-09T05:37:59;13;13;
63662;PMS5003;49815;51.618;0.336;2022-09-09T05:40:24;12;12;
63662;PMS5003;49815;51.618;0.336;2022-09-09T05:42:50;10;10;
63662;PMS5003;49815;51.618;0.336;2022-09-09T05:45:16;12;11;
63662;PMS5003;49815;51.618;0.336;2022-09-09T05:47:42;12;10;
63662;PMS5003;49815;51.618;0.336;2022-09-09T05:50:07;15;10;
63662;PMS5003;49815;51.618;0.336;2022-09-09T05:52:32;10;10;
63662;PMS5003;49815;51.618;0.336;2022-09-09T05:54:57;14;10;
63662;PMS5003;49815;51.618;0.336;2022-09-09T05:57:23;12;12;
63662;PMS5003;49815;51.618;0.336;2022-09-09T05:59:48;21;21;
63662;PMS5003;49815;51.618;0.336;2022-09-09T06:02:14;20;19;
63662;PMS5003;49815;51.618;0.336;2022-09-09T06:04:40;16;13;
63662;PMS5003;49815;51.618;0.336;2022-09-09T06:07:05;13;13;
63662;PMS5003;49815;51.618;0.336;2022-09-09T06:09:31;12;12;
63662;PMS5003;49815;51.618;0.336;2022-09-09T06:11:56;14;12;
63662;PMS5003;49815;51.618;0.336;2022-09-09T06:14:21;13;13;
63662;PMS5003;49815;51.618;0.336;2022-09-09T06:16:47;21;13;
63662;PMS5003;49815;51.618;0.336;2022-09-09T06:19:12;19;18;
63662;PMS5003;49815;51.618;0.336;2022-09-09T06:21:37;20;19;
63662;PMS5003;49815;51.618;0.336;2022-09-09T06:24:03;20;20;
63662;PMS5003;49815;51.618;0.336;2022-09-09T06:26:29;20;18;
63662;PMS5003;49815;51.618;0.336;2022-09-09T06:28:54;23;20;
63662;PMS5003;49815;51.618;0.336;2022-09-09T06:31:20;17;17;
63662;PMS5003;49815;51.618;0.336;2022-09-09T06:33:46;20;17;
63662;PMS5003;49815;51.618;0.336;2022-09-09T06:36:10;24;21;
63662;PMS5003;49815;51.618;0.336;2022-09-09T06:38:35;26;22;
63662;PMS5003;49815;51.618;0.336;2022-09-09T06:41:01;22;21;
63662;PMS5003;49815;51.618;0.336;2022-09-09T06:43:26;20;16;
63662;PMS5003;49815;51.618;0.336;2022-09-09T06:45:53;17;16;
63662;PMS5003;49815;51.618;0.336;2022-09-09T06:48:17;14;14;
63662;PMS5003;49815;51.618;0.336;2022-09-09T06:50:42;21;16;
63662;PMS5003;49815;51.618;0.336;2022-09-09T06:53:08;18;16;
63662;PMS5003;49815;51.618;0.336;2022-09-09T06:55:33;22;21;
63662;PMS5003;49815;51.618;0.336;2022-09-09T06:57:59;22;18;
63662;PMS5003;49815;51.618;0.336;2022-09-09T07:00:25;26;19;
63662;PMS5003;49815;51.618;0.336;2022-09-09T07:02:51;21;18;
63662;PMS5003;49815;51.618;0.336;2022-09-09T07:05:16;16;16;
63662;PMS5003;49815;51.618;0.336;2022-09-09T07:07:42;21;13;
63662;PMS5003;49815;51.618;0.336;2022-09-09T07:10:07;16;14;
63662;PMS5003;49815;51.618;0.336;2022-09-09T07:12:33;15;12;
63662;PMS5003;49815;51.618;0.336;2022-09-09T07:14:58;15;13;
63662;PMS5003;49815;51.618;0.336;2022-09-09T07:17:24;21;16;
63662;PMS5003;49815;51.618;0.336;2022-09-09T07:19:48;15;13;
63662;PMS5003;49815;51.618;0.336;2022-09-09T07:22:13;12;12;
63662;PMS5003;49815;51.618;0.336;2022-09-09T07:24:38;15;14;
63662;PMS5003;49815;51.618;0.336;2022-09-09T07:27:03;10;10;
63662;PMS5003;49815;51.618;0.336;2022-09-09T07:29:29;12;12;
63662;PMS5003;49815;51.618;0.336;2022-09-09T07:31:55;15;12;
63662;PMS5003;49815;51.618;0.336;2022-09-09T07:34:21;16;10;
63662;PMS5003;49815;51.618;0.336;2022-09-09T07:36:45;12;10;
63662;PMS5003;49815;51.618;0.336;2022-09-09T07:39:11;11;10;
63662;PMS5003;49815;51.618;0.336;2022-09-09T07:41:38;16;10;
63662;PMS5003;49815;51.618;0.336;2022-09-09T07:44:04;8;8;
63662;PMS5003;49815;51.618;0.336;2022-09-09T07:46:27;16;12;
63662;PMS5003;49815;51.618;0.336;2022-09-09T07:48:54;9;9;
63662;PMS5003;49815;51.618;0.336;2022-09-09T07:51:19;12;12;
63662;PMS5003;49815;51.618;0.336;2022-09-09T07:53:45;11;10;
63662;PMS5003;49815;51.618;0.336;2022-09-09T07:56:09;10;8;
63662;PMS5003;49815;51.618;0.336;2022-09-09T07:58:34;11;10;
63662;PMS5003;49815;51.618;0.336;2022-09-09T08:01:02;12;10;
63662;PMS5003;49815;51.618;0.336;2022-09-09T08:03:25;12;12;
63662;PMS5003;49815;51.618;0.336;2022-09-09T08:05:50;17;14;
63662;PMS5003;49815;51.618;0.336;2022-09-09T08:08:16;13;13;
63662;PMS5003;49815;51.618;0.336;2022-09-09T08:10:41;16;16;
63662;PMS5003;49815;51.618;0.336;2022-09-09T08:13:09;13;13;
63662;PMS5003;49815;51.618;0.336;2022-09-09T08:15:32;15;15;
63662;PMS5003;49815;51.618;0.336;2022-09-09T08:17:58;18;14;
63662;PMS5003;49815;51.618;0.336;2022-09-09T08:20:23;14;14;
63662;PMS5003;49815;51.618;0.336;2022-09-09T08:22:48;15;13;
63662;PMS5003;49815;51.618;0.336;2022-09-09T08:25:14;15;13;
63662;PMS5003;49815;51.618;0.336;2022-09-09T08:27:39;13;13;
63662;PMS5003;49815;51.618;0.336;2022-09-09T08:30:05;17;16;
63662;PMS5003;49815;51.618;0.336;2022-09-09T08:32:30;14;14;
63662;PMS5003;49815;51.618;0.336;2022-09-09T08:34:56;16;13;
63662;PMS5003;49815;51.618;0.336;2022-09-09T08:37:21;13;12;
63662;PMS5003;49815;51.618;0.336;2022-09-09T08:39:47;15;14;
63662;PMS5003;49815;51.618;0.336;2022-09-09T08:42:18;11;9;
63662;PMS5003;49815;51.618;0.336;2022-09-09T08:44:41;13;12;
63662;PMS5003;49815;51.618;0.336;2022-09-09T08:47:04;12;12;
63662;PMS5003;49815;51.618;0.336;2022-09-09T08:49:35;11;9;
63662;PMS5003;49815;51.618;0.336;2022-09-09T08:51:54;10;7;
63662;PMS5003;49815;51.618;0.336;2022-09-09T08:54:20;14;10;
63662;PMS5003;49815;51.618;0.336;2022-09-09T08:56:44;9;9;
63662;PMS5003;49815;51.618;0.336;2022-09-09T08:59:09;14;10;
63662;PMS5003;49815;51.618;0.336;2022-09-09T09:01:39;12;9;
63662;PMS5003;49815;51.618;0.336;2022-09-09T09:04:02;13;10;
63662;PMS5003;49815;51.618;0.336;2022-09-09T09:06:31;16;13;
63662;PMS5003;49815;51.618;0.336;2022-09-09T09:08:54;11;9;
63662;PMS5003;49815;51.618;0.336;2022-09-09T09:11:17;9;9;
63662;PMS5003;49815;51.618;0.336;2022-09-09T09:13:43;9;8;
63662;PMS5003;49815;51.618;0.336;2022-09-09T09:16:12;8;8;
63662;PMS5003;49815;51.618;0.336;2022-09-09T09:18:33;12;11;
63662;PMS5003;49815;51.618;0.336;2022-09-09T09:21:01;10;8;
63662;PMS5003;49815;51.618;0.336;2022-09-09T09:23:32;9;9;
63662;PMS5003;49815;51.618;0.336;2022-09-09T09:25:50;7;7;
63662;PMS5003;49815;51.618;0.336;2022-09-09T09:28:15;6;6;
63662;PMS5003;49815;51.618;0.336;2022-09-09T09:30:40;7;5;
63662;PMS5003;49815;51.618;0.336;2022-09-09T09:33:05;9;8;
63662;PMS5003;49815;51.618;0.336;2022-09-09T09:35:30;8;7;
63662;PMS5003;49815;51.618;0.336;2022-09-09T09:37:55;5;5;
63662;PMS5003;49815;51.618;0.336;2022-09-09T09:40:21;8;6;
63662;PMS5003;49815;51.618;0.336;2022-09-09T09:42:49;6;6;
63662;PMS5003;49815;51.618;0.336;2022-09-09T09:45:14;7;5;
63662;PMS5003;49815;51.618;0.336;2022-09-09T09:47:36;4;4;
63662;PMS5003;49815;51.618;0.336;2022-09-09T09:50:03;8;7;
63662;PMS5003;49815;51.618;0.336;2022-09-09T09:52:28;7;6;
63662;PMS5003;49815;51.618;0.336;2022-09-09T09:54:52;10;7;
63662;PMS5003;49815;51.618;0.336;2022-09-09T09:57:16;5;5;
63662;PMS5003;49815;51.618;0.336;2022-09-09T09:59:42;6;4;
63662;PMS5003;49815;51.618;0.336;2022-09-09T10:02:13;6;5;
63662;PMS5003;49815;51.618;0.336;2022-09-09T10:04:32;7;6;
63662;PMS5003;49815;51.618;0.336;2022-09-09T10:06:57;4;4;
63662;PMS5003;49815;51.618;0.336;2022-09-09T10:09:23;6;4;
63662;PMS5003;49815;51.618;0.336;2022-09-09T10:11:49;3;3;
63662;PMS5003;49815;51.618;0.336;2022-09-09T10:14:15;2;2;
63662;PMS5003;49815;51.618;0.336;2022-09-09T10:16:42;5;4;
63662;PMS5003;49815;51.618;0.336;2022-09-09T10:19:03;4;4;
63662;PMS5003;49815;51.618;0.336;2022-09-09T10:21:32;2;2;
63662;PMS5003;49815;51.618;0.336;2022-09-09T10:23:59;4;4;
63662;PMS5003;49815;51.618;0.336;2022-09-09T10:26:23;5;4;
63662;PMS5003;49815;51.618;0.336;2022-09-09T10:28:51;5;5;
63662;PMS5003;49815;51.618;0.336;2022-09-09T10:31:12;6;4;
63662;PMS5003;49815;51.618;0.336;2022-09-09T10:33:37;5;5;
63662;PMS5003;49815;51.618;0.336;2022-09-09T10:36:01;7;5;
63662;PMS5003;49815;51.618;0.336;2022-09-09T10:38:24;6;5;
63662;PMS5003;49815;51.618;0.336;2022-09-09T10:43:17;6;4;
63662;PMS5003;49815;51.618;0.336;2022-09-09T10:45:42;6;6;
63662;PMS5003;49815;51.618;0.336;2022-09-09T10:48:08;7;7;
63662;PMS5003;49815;51.618;0.336;2022-09-09T10:50:37;4;4;
63662;PMS5003;49815;51.618;0.336;2022-09-09T10:52:56;4;4;
63662;PMS5003;49815;51.618;0.336;2022-09-09T10:55:23;4;4;
63662;PMS5003;49815;51.618;0.336;2022-09-09T10:57:46;6;6;
63662;PMS5003;49815;51.618;0.336;2022-09-09T11:00:15;8;5;
63662;PMS5003;49815;51.618;0.336;2022-09-09T11:02:35;5;5;
63662;PMS5003;49815;51.618;0.336;2022-09-09T11:05:02;6;6;
63662;PMS5003;49815;51.618;0.336;2022-09-09T11:07:29;8;7;
63662;PMS5003;49815;51.618;0.336;2022-09-09T11:10:02;8;7;
63662;PMS5003;49815;51.618;0.336;2022-09-09T11:12:17;10;9;
63662;PMS5003;49815;51.618;0.336;2022-09-09T11:14:42;8;8;
63662;PMS5003;49815;51.618;0.336;2022-09-09T11:17:09;9;9;
63662;PMS5003;49815;51.618;0.336;2022-09-09T11:19:33;7;7;
63662;PMS5003;49815;51.618;0.336;2022-09-09T11:21:57;7;7;
63662;PMS5003;49815;51.618;0.336;2022-09-09T11:24:25;7;7;
63662;PMS5003;49815;51.618;0.336;2022-09-09T11:26:49;9;9;
63662;PMS5003;49815;51.618;0.336;2022-09-09T11:31:43;8;7;
63662;PMS5003;49815;51.618;0.336;2022-09-09T11:34:09;9;9;
63662;PMS5003;49815;51.618;0.336;2022-09-09T11:38:56;10;10;
63662;PMS5003;49815;51.618;0.336;2022-09-09T11:41:20;12;12;
63662;PMS5003;49815;51.618;0.336;2022-09-09T11:43:45;14;11;
63662;PMS5003;49815;51.618;0.336;2022-09-09T11:46:11;10;10;
63662;PMS5003;49815;51.618;0.336;2022-09-09T11:48:36;13;12;
63662;PMS5003;49815;51.618;0.336;2022-09-09T11:51:03;13;11;
63662;PMS5003;49815;51.618;0.336;2022-09-09T11:53:27;9;9;
63662;PMS5003;49815;51.618;0.336;2022-09-09T11:58:17;6;6;
63662;PMS5003;49815;51.618;0.336;2022-09-09T12:00:43;7;6;
63662;PMS5003;49815;51.618;0.336;2022-09-09T12:03:08;7;7;
63662;PMS5003;49815;51.618;0.336;2022-09-09T12:05:36;9;8;
63662;PMS5003;49815;51.618;0.336;2022-09-09T12:07:57;5;5;
63662;PMS5003;49815;51.618;0.336;2022-09-09T12:10:23;11;11;
63662;PMS5003;49815;51.618;0.336;2022-09-09T12:12:48;10;10;
63662;PMS5003;49815;51.618;0.336;2022-09-09T12:15:18;14;11;
63662;PMS5003;49815;51.618;0.336;2022-09-09T12:17:41;8;8;
63662;PMS5003;49815;51.618;0.336;2022-09-09T12:20:06;12;9;
63662;PMS5003;49815;51.618;0.336;2022-09-09T12:22:30;14;12;
63662;PMS5003;49815;51.618;0.336;2022-09-09T12:24:56;11;11;
63662;PMS5003;49815;51.618;0.336;2022-09-09T12:27:20;11;11;
63662;PMS5003;49815;51.618;0.336;2022-09-09T12:29:46;11;11;
63662;PMS5003;49815;51.618;0.336;2022-09-09T12:32:11;11;11;
63662;PMS5003;49815;51.618;0.336;2022-09-09T12:34:38;13;12;
63662;PMS5003;49815;51.618;0.336;2022-09-09T12:37:03;9;9;
63662;PMS5003;49815;51.618;0.336;2022-09-09T12:39:29;9;9;
63662;PMS5003;49815;51.618;0.336;2022-09-09T12:41:52;10;9;
63662;PMS5003;49815;51.618;0.336;2022-09-09T12:44:17;12;9;
63662;PMS5003;49815;51.618;0.336;2022-09-09T12:46:42;9;9;
63662;PMS5003;49815;51.618;0.336;2022-09-09T12:51:33;9;9;
63662;PMS5003;49815;51.618;0.336;2022-09-09T12:53:58;12;12;
63662;PMS5003;49815;51.618;0.336;2022-09-09T12:56:23;11;11;
63662;PMS5003;49815;51.618;0.336;2022-09-09T12:58:49;12;12;
63662;PMS5003;49815;51.618;0.336;2022-09-09T13:01:18;14;14;
63662;PMS5003;49815;51.618;0.336;2022-09-09T13:03:42;13;13;
63662;PMS5003;49815;51.618;0.336;2022-09-09T13:08:30;9;9;
63662;PMS5003;49815;51.618;0.336;2022-09-09T13:10:56;15;13;
63662;PMS5003;49815;51.618;0.336;2022-09-09T13:13:21;10;10;
63662;PMS5003;49815;51.618;0.336;2022-09-09T13:15:48;9;9;
63662;PMS5003;49815;51.618;0.336;2022-09-09T13:18:11;10;10;
63662;PMS5003;49815;51.618;0.336;2022-09-09T13:20:36;13;11;
63662;PMS5003;49815;51.618;0.336;2022-09-09T13:23:09;11;9;
63662;PMS5003;49815;51.618;0.336;2022-09-09T13:25:27;11;11;
63662;PMS5003;49815;51.618;0.336;2022-09-09T13:27:52;11;11;
63662;PMS5003;49815;51.618;0.336;2022-09-09T13:30:19;10;10;
63662;PMS5003;49815;51.618;0.336;2022-09-09T13:32:41;9;9;
63662;PMS5003;49815;51.618;0.336;2022-09-09T13:37:33;15;13;
63662;PMS5003;49815;51.618;0.336;2022-09-09T13:39:59;13;12;
63662;PMS5003;49815;51.618;0.336;2022-09-09T13:42:24;12;12;
63662;PMS5003;49815;51.618;0.336;2022-09-09T13:44:48;13;11;
63662;PMS5003;49815;51.618;0.336;2022-09-09T13:47:17;14;13;
63662;PMS5003;49815;51.618;0.336;2022-09-09T13:49:39;13;13;
63662;PMS5003;49815;51.618;0.336;2022-09-09T13:52:04;12;12;
63662;PMS5003;49815;51.618;0.336;2022-09-09T13:54:29;12;12;
63662;PMS5003;49815;51.618;0.336;2022-09-09T13:56:54;13;13;
63662;PMS5003;49815;51.618;0.336;2022-09-09T13:59:19;12;12;
63662;PMS5003;49815;51.618;0.336;2022-09-09T14:01:45;11;10;
63662;PMS5003;49815;51.618;0.336;2022-09-09T14:04:10;7;7;
63662;PMS5003;49815;51.618;0.336;2022-09-09T14:06:35;8;8;
63662;PMS5003;49815;51.618;0.336;2022-09-09T14:09:01;9;9;
63662;PMS5003;49815;51.618;0.336;2022-09-09T14:11:26;9;8;
63662;PMS5003;49815;51.618;0.336;2022-09-09T14:13:51;10;10;
63662;PMS5003;49815;51.618;0.336;2022-09-09T14:16:17;10;10;
63662;PMS5003;49815;51.618;0.336;2022-09-09T14:18:47;9;9;
63662;PMS5003;49815;51.618;0.336;2022-09-09T14:21:07;11;9;
63662;PMS5003;49815;51.618;0.336;2022-09-09T14:23:32;9;9;
63662;PMS5003;49815;51.618;0.336;2022-09-09T14:25:58;10;10;
63662;PMS5003;49815;51.618;0.336;2022-09-09T14:28:23;12;10;
63662;PMS5003;49815;51.618;0.336;2022-09-09T14:30:48;10;10;
63662;PMS5003;49815;51.618;0.336;2022-09-09T14:33:14;7;7;
63662;PMS5003;49815;51.618;0.336;2022-09-09T14:35:38;11;9;
63662;PMS5003;49815;51.618;0.336;2022-09-09T14:38:03;11;11;
63662;PMS5003;49815;51.618;0.336;2022-09-09T14:40:28;10;10;
63662;PMS5003;49815;51.618;0.336;2022-09-09T14:42:58;10;10;
63662;PMS5003;49815;51.618;0.336;2022-09-09T14:45:19;10;10;
63662;PMS5003;49815;51.618;0.336;2022-09-09T14:47:44;9;8;
63662;PMS5003;49815;51.618;0.336;2022-09-09T14:50:09;8;8;
63662;PMS5003;49815;51.618;0.336;2022-09-09T14:52:34;9;9;
63662;PMS5003;49815;51.618;0.336;2022-09-09T14:54:59;7;7;
63662;PMS5003;49815;51.618;0.336;2022-09-09T14:57:24;9;9;
63662;PMS5003;49815;51.618;0.336;2022-09-09T14:59:49;11;9;
63662;PMS5003;49815;51.618;0.336;2022-09-09T15:02:14;6;6;
63662;PMS5003;49815;51.618;0.336;2022-09-09T15:04:40;9;8;
63662;PMS5003;49815;51.618;0.336;2022-09-09T15:07:05;9;9;
63662;PMS5003;49815;51.618;0.336;2022-09-09T15:09:30;10;8;
63662;PMS5003;49815;51.618;0.336;2022-09-09T15:11:55;7;7;
63662;PMS5003;49815;51.618;0.336;2022-09-09T15:14:22;8;8;
63662;PMS5003;49815;51.618;0.336;2022-09-09T15:16:46;10;7;
63662;PMS5003;49815;51.618;0.336;2022-09-09T15:19:11;10;10;
63662;PMS5003;49815;51.618;0.336;2022-09-09T15:21:36;10;7;
63662;PMS5003;49815;51.618;0.336;2022-09-09T15:24:01;7;7;
63662;PMS5003;49815;51.618;0.336;2022-09-09T15:26:26;7;7;
63662;PMS5003;49815;51.618;0.336;2022-09-09T15:28:51;7;7;
63662;PMS5003;49815;51.618;0.336;2022-09-09T15:31:18;9;9;
63662;PMS5003;49815;51.618;0.336;2022-09-09T15:33:46;11;11;
63662;PMS5003;49815;51.618;0.336;2022-09-09T15:36:13;8;7;
63662;PMS5003;49815;51.618;0.336;2022-09-09T15:38:33;9;7;
63662;PMS5003;49815;51.618;0.336;2022-09-09T15:40:58;6;6;
63662;PMS5003;49815;51.618;0.336;2022-09-09T15:43:24;9;9;
63662;PMS5003;49815;51.618;0.336;2022-09-09T15:45:51;6;6;
63662;PMS5003;49815;51.618;0.336;2022-09-09T15:48:14;7;7;
63662;PMS5003;49815;51.618;0.336;2022-09-09T15:50:40;7;6;
63662;PMS5003;49815;51.618;0.336;2022-09-09T15:53:05;6;6;
63662;PMS5003;49815;51.618;0.336;2022-09-09T15:55:30;7;6;
63662;PMS5003;49815;51.618;0.336;2022-09-09T15:57:55;5;5;
63662;PMS5003;49815;51.618;0.336;2022-09-09T16:00:21;4;4;
63662;PMS5003;49815;51.618;0.336;2022-09-09T16:02:46;4;4;
63662;PMS5003;49815;51.618;0.336;2022-09-09T16:05:11;6;5;
63662;PMS5003;49815;51.618;0.336;2022-09-09T16:07:36;5;5;
63662;PMS5003;49815;51.618;0.336;2022-09-09T16:10:07;6;6;
63662;PMS5003;49815;51.618;0.336;2022-09-09T16:12:27;5;5;
63662;PMS5003;49815;51.618;0.336;2022-09-09T16:14:53;5;5;
63662;PMS5003;49815;51.618;0.336;2022-09-09T16:19:43;5;5;
63662;PMS5003;49815;51.618;0.336;2022-09-09T16:22:08;6;4;
63662;PMS5003;49815;51.618;0.336;2022-09-09T16:24:33;5;4;
63662;PMS5003;49815;51.618;0.336;2022-09-09T16:26:59;4;4;
63662;PMS5003;49815;51.618;0.336;2022-09-09T16:29:24;5;5;
63662;PMS5003;49815;51.618;0.336;2022-09-09T16:31:49;5;5;
63662;PMS5003;49815;51.618;0.336;2022-09-09T16:34:15;4;4;
63662;PMS5003;49815;51.618;0.336;2022-09-09T16:36:40;5;5;
63662;PMS5003;49815;51.618;0.336;2022-09-09T16:39:05;5;4;
63662;PMS5003;49815;51.618;0.336;2022-09-09T16:41:30;4;4;
63662;PMS5003;49815;51.618;0.336;2022-09-09T16:43:55;6;6;